Frank Wiley Field
KMLS : now visible

Airfield :











YOU CAN JOIN US ON...

 
LOGIN :

Register | Disclaimer

   EN    FR    IT 

 









Legend :    VFR   Marginal VFR   IFR   Intensive IFR   Very Intensive IFR
Visi :
Ceiling :
>= 8 km
>= 3000ft
5 to 8 km
1000 to 3000 ft
1500m to 5 km
500 to 1000 ft
800 to 1500m
200 to 500 ft
< 800m
< 200 ft
Symbols :   Thunderstorms  Fog  Heavy snow  Heavy precipitations  Wind > 20 kt






- Airport Elevation : 2630 ft
- IATA code : MLS


KMLS - Frank Wiley Field

CURRENT METAR :
  • 231921Z AUTO 07015G22KT 1 3/4SM +RA BR OVC011 10/09 A2967 RMK AO2 PK WND 05026/1906 P0005 T01000094

EXPIRED METARs :
  • 231901Z AUTO 05016G23KT 2 1/2SM RA BR BKN014 OVC019 11/10 A2966 RMK AO2 P0001 T01060100
  • 231853Z AUTO 05014G24KT 3SM RA BR BKN014 OVC019 11/09 A2966 RMK AO2 RAB02 SLP046 P0007 T01060094
  • 231831Z AUTO 05017G24KT 2 1/2SM RA BR OVC019 11/09 A2966 RMK AO2 RAB02 P0004 T01060094
  • 231813Z AUTO 06015G24KT 8SM -RA BKN021 OVC060 11/09 A2966 RMK AO2 RAB02 P0000 T01110089
  • 231753Z AUTO 04017KT 10SM SCT022 OVC060 11/09 A2964 RMK AO2 PK WND 05026/1654 RAE44 SLP038 P0002 60004 T01110089 10111 20089 55005
  • 231744Z AUTO 04017G23KT 10SM SCT022 OVC060 11/09 A2964 RMK AO2 PK WND 05026/1654 RAE44 P0002 T01110094
  • 231736Z AUTO 04016G24KT 7SM -RA BKN022 OVC060 11/09 A2964 RMK AO2 PK WND 05026/1654 P0002 T01060089
  • 231653Z AUTO 05016G26KT 4SM RA BR OVC060 11/08 A2964 RMK AO2 PK WND 05029/1620 RAB09 SLP034 P0002 T01060083
  • 231553Z AUTO 04021G29KT 10SM FEW014 OVC070 11/08 A2963 RMK AO2 PK WND 05029/1549 RAE10 SLP032 P0000 T01060078
  • 231510Z AUTO 04019KT 10SM SCT014 BKN065 OVC080 10/08 A2965 RMK AO2 RAE10 P0000 T01000078
  • 231453Z AUTO 04015KT 7SM -RA BKN013 OVC065 10/08 A2966 RMK AO2 RAB02 SLP042 P0000 60000 T01000078 50004

TAF KMLS
Valid from the 23 at 18:00 until the 24 at 18:00 UTC


231739Z 2318/2418 05021G33KT 6SM -RA BR SCT014 OVC070
TEMPO 2318/2322 2SM RA BR FEW002 OVC010
FM232300 35022G32KT 1SM RA BR FEW002 OVC012
FM240300 35012KT 6SM -RA BR OVC020
FM240800 33007KT P6SM VCFG SCT002
FM241500 26007KT P6SM FEW005
KZLC FIR / North America



MET'MAP, your aeronautical weather chart ! - Copyright ORBIFLY December 2007 - Disclaimer

ORBIFLY MET'MAP TEAM :

Programming & Development : Alexandra Zaïnal
Original concept : Baudouin d'Aumeries
Technical & hardware support : Manuel Goepfert
Assistance : Marc-Olivier Méhu




SOURCES & CREDITS :

   NOAA       Earth
Advisory